Sukran S — TCKB — position and weather

sailwx.info

Track history (hours):
 
Tides and Currents Weather Stations Pressure Air Temp Water Temp Dewpoint Dewpoint Depression Visibility Wind Speed Wind Dir Waves Ship Positions

Sukran S

Last reported at 2017-Jan-19 10:15 UTC. Time now 2017-Jan-22 16:22 UTC.
Position N 46°06' E 030°46'.

Length 108 m; draft 6.9 m.

Type: Cargo ship. MMSI: 271000056.

Date/timePositionNaut miles runAvg speedWind from/ knotsBaromVisibWave heightAir tempDewpointWater temp
2017-Jan-19 10:15N 46°06' E 030°46'7 9.4
2017-Jan-19 09:33N 46°12' E 030°46'8 7.4
2017-Jan-19 08:28N 46°19' E 030°40'1 1.2
2017-Jan-19 07:33N 46°20' E 030°39'0 0.0
2017-Jan-19 06:31N 46°20' E 030°39'0 0.0
2017-Jan-19 05:12N 46°20' E 030°39'0 0.0
2017-Jan-19 04:14N 46°20' E 030°39'0 0.0
2017-Jan-19 03:27N 46°20' E 030°39'0 0.0
2017-Jan-19 02:33N 46°20' E 030°39'0 0.0
2017-Jan-19 01:24N 46°20' E 030°39'0 0.0
2017-Jan-18 18:17N 46°20' E 030°39'0 0.0
2017-Jan-18 17:32N 46°20' E 030°39'0 0.0
2017-Jan-18 16:20N 46°20' E 030°39'0 0.0
2017-Jan-18 09:23N 46°20' E 030°39'0 0.0
2017-Jan-18 05:19N 46°20' E 030°39'0 0.0
2017-Jan-18 04:31N 46°20' E 030°39'0 0.0
2017-Jan-18 03:29N 46°20' E 030°39'0 0.0
2017-Jan-18 01:29N 46°20' E 030°39'0 0.0
2017-Jan-17 20:15N 46°20' E 030°39'0 0.0
2017-Jan-17 19:04N 46°20' E 030°39'0 0.0
2017-Jan-17 18:32N 46°20' E 030°39'0 0.0
2017-Jan-17 16:32N 46°20' E 030°39'0 0.0
2017-Jan-17 11:05N 46°20' E 030°39'0 0.0
2017-Jan-17 08:29N 46°20' E 030°39'0 0.0
2017-Jan-17 00:16N 46°20' E 030°39'0 0.0
2017-Jan-16 23:33N 46°20' E 030°39'0 0.0
2017-Jan-16 22:33N 46°20' E 030°39'0 0.0
2017-Jan-16 21:34N 46°20' E 030°39'0 0.0
2017-Jan-16 20:33N 46°20' E 030°39'0 0.0
2017-Jan-16 19:18N 46°20' E 030°39'0 0.0
2017-Jan-16 18:30N 46°20' E 030°39'0 0.0
2017-Jan-16 17:34N 46°20' E 030°39'0 0.0
2017-Jan-16 16:33N 46°20' E 030°39'0 0.0
2017-Jan-16 15:33N 46°20' E 030°39'0 0.0
2017-Jan-16 14:31N 46°20' E 030°39'0 0.0
2017-Jan-16 13:32N 46°20' E 030°39'0 0.0
2017-Jan-16 11:33N 46°20' E 030°39'0 0.0
2017-Jan-16 10:31N 46°20' E 030°39'0 0.0
2017-Jan-16 09:30N 46°20' E 030°39'0 0.0
2017-Jan-16 08:33N 46°20' E 030°39'0 0.0
2017-Jan-16 07:33N 46°20' E 030°39'0 0.0
2017-Jan-16 06:33N 46°20' E 030°39'0 0.0
2017-Jan-16 05:34N 46°20' E 030°39'0 0.0
2017-Jan-16 04:34N 46°20' E 030°39'0 0.0
2017-Jan-16 03:33N 46°20' E 030°39'0 0.0
2017-Jan-16 02:33N 46°20' E 030°39'0 0.0
2017-Jan-15 17:11N 46°20' E 030°39'0 0.0
2017-Jan-15 15:08N 46°20' E 030°39'0 0.0
2017-Jan-15 14:33N 46°20' E 030°39'0 0.0
2017-Jan-15 13:33N 46°20' E 030°39'0 0.0
2017-Jan-15 12:33N 46°20' E 030°39'0 0.0
2017-Jan-15 11:34N 46°20' E 030°39'0 0.0
2017-Jan-15 10:31N 46°20' E 030°39'3 2.8
2017-Jan-15 09:33N 46°19' E 030°42'2 2.2
2017-Jan-15 08:33N 46°17' E 030°45'1010.1
2017-Jan-15 07:32N 46°07' E 030°46'  
Track history (hours):
 
Tides and Currents Weather Stations Pressure Air Temp Water Temp Dewpoint Dewpoint Depression Visibility Wind Speed Wind Dir Waves Ship Positions

Sukran S

Last reported at 2017-Jan-19 10:15 UTC. Time now 2017-Jan-22 16:22 UTC.
Position N 46°06' E 030°46'.

Length 108 m; draft 6.9 m.

Type: Cargo ship. MMSI: 271000056.

Date/timePositionNaut miles runAvg speedWind from/ knotsBaromVisibWave heightAir tempDewpointWater temp
2017-Jan-19 10:15N 46°06' E 030°46'7 9.4
2017-Jan-19 09:33N 46°12' E 030°46'8 7.4
2017-Jan-19 08:28N 46°19' E 030°40'1 1.2
2017-Jan-19 07:33N 46°20' E 030°39'0 0.0
2017-Jan-19 06:31N 46°20' E 030°39'0 0.0
2017-Jan-19 05:12N 46°20' E 030°39'0 0.0
2017-Jan-19 04:14N 46°20' E 030°39'0 0.0
2017-Jan-19 03:27N 46°20' E 030°39'0 0.0
2017-Jan-19 02:33N 46°20' E 030°39'0 0.0
2017-Jan-19 01:24N 46°20' E 030°39'0 0.0
2017-Jan-18 18:17N 46°20' E 030°39'0 0.0
2017-Jan-18 17:32N 46°20' E 030°39'0 0.0
2017-Jan-18 16:20N 46°20' E 030°39'0 0.0
2017-Jan-18 09:23N 46°20' E 030°39'0 0.0
2017-Jan-18 05:19N 46°20' E 030°39'0 0.0
2017-Jan-18 04:31N 46°20' E 030°39'0 0.0
2017-Jan-18 03:29N 46°20' E 030°39'0 0.0
2017-Jan-18 01:29N 46°20' E 030°39'0 0.0
2017-Jan-17 20:15N 46°20' E 030°39'0 0.0
2017-Jan-17 19:04N 46°20' E 030°39'0 0.0
2017-Jan-17 18:32N 46°20' E 030°39'0 0.0
2017-Jan-17 16:32N 46°20' E 030°39'0 0.0
2017-Jan-17 11:05N 46°20' E 030°39'0 0.0
2017-Jan-17 08:29N 46°20' E 030°39'0 0.0
2017-Jan-17 00:16N 46°20' E 030°39'0 0.0
2017-Jan-16 23:33N 46°20' E 030°39'0 0.0
2017-Jan-16 22:33N 46°20' E 030°39'0 0.0
2017-Jan-16 21:34N 46°20' E 030°39'0 0.0
2017-Jan-16 20:33N 46°20' E 030°39'0 0.0
2017-Jan-16 19:18N 46°20' E 030°39'0 0.0
2017-Jan-16 18:30N 46°20' E 030°39'0 0.0
2017-Jan-16 17:34N 46°20' E 030°39'0 0.0
2017-Jan-16 16:33N 46°20' E 030°39'0 0.0
2017-Jan-16 15:33N 46°20' E 030°39'0 0.0
2017-Jan-16 14:31N 46°20' E 030°39'0 0.0
2017-Jan-16 13:32N 46°20' E 030°39'0 0.0
2017-Jan-16 11:33N 46°20' E 030°39'0 0.0
2017-Jan-16 10:31N 46°20' E 030°39'0 0.0
2017-Jan-16 09:30N 46°20' E 030°39'0 0.0
2017-Jan-16 08:33N 46°20' E 030°39'0 0.0
2017-Jan-16 07:33N 46°20' E 030°39'0 0.0
2017-Jan-16 06:33N 46°20' E 030°39'0 0.0
2017-Jan-16 05:34N 46°20' E 030°39'0 0.0
2017-Jan-16 04:34N 46°20' E 030°39'0 0.0
2017-Jan-16 03:33N 46°20' E 030°39'0 0.0
2017-Jan-16 02:33N 46°20' E 030°39'0 0.0
2017-Jan-15 17:11N 46°20' E 030°39'0 0.0
2017-Jan-15 15:08N 46°20' E 030°39'0 0.0
2017-Jan-15 14:33N 46°20' E 030°39'0 0.0
2017-Jan-15 13:33N 46°20' E 030°39'0 0.0
2017-Jan-15 12:33N 46°20' E 030°39'0 0.0
2017-Jan-15 11:34N 46°20' E 030°39'0 0.0
2017-Jan-15 10:31N 46°20' E 030°39'3 2.8
2017-Jan-15 09:33N 46°19' E 030°42'2 2.2
2017-Jan-15 08:33N 46°17' E 030°45'1010.1
2017-Jan-15 07:32N 46°07' E 030°46'  

Dump ship's entire track history